createdAt,value
2024-01-19T00:01:43.060Z,-2.16
2024-01-19T00:04:12.271Z,-2.17
2024-01-19T00:06:42.795Z,-2.16
2024-01-19T00:09:12.058Z,-2.17
2024-01-19T00:11:42.693Z,-2.19
2024-01-19T00:14:11.993Z,-2.23
2024-01-19T00:16:43.756Z,-2.27
2024-01-19T00:19:12.993Z,-2.31
2024-01-19T00:21:44.177Z,-2.32
2024-01-19T00:24:13.885Z,-2.33
2024-01-19T00:26:49.146Z,-2.34
2024-01-19T00:29:21.089Z,-2.36
2024-01-19T00:31:50.388Z,-2.38
2024-01-19T00:34:20.890Z,-2.38
2024-01-19T00:36:50.216Z,-2.38
2024-01-19T00:39:20.704Z,-2.35
2024-01-19T00:41:50.120Z,-2.35
2024-01-19T00:44:20.905Z,-2.36
2024-01-19T00:46:51.794Z,-2.36
2024-01-19T00:49:22.365Z,-2.37
2024-01-19T00:51:51.686Z,-2.37
2024-01-19T00:54:22.142Z,-2.36
2024-01-19T00:56:51.474Z,-2.35
2024-01-19T00:59:22.094Z,-2.33
2024-01-19T01:01:51.397Z,-2.32
2024-01-19T01:04:21.956Z,-2.33
2024-01-19T01:06:51.413Z,-2.34
2024-01-19T01:09:21.989Z,-2.34
2024-01-19T01:11:51.338Z,-2.34
2024-01-19T01:14:21.904Z,-2.33
2024-01-19T01:16:51.166Z,-2.34
2024-01-19T01:19:21.690Z,-2.33
2024-01-19T01:21:50.927Z,-2.35
2024-01-19T01:24:23.593Z,-2.37
2024-01-19T01:26:52.939Z,-2.39
2024-01-19T01:29:23.599Z,-2.42
2024-01-19T01:31:53.036Z,-2.44
2024-01-19T01:34:23.491Z,-2.47
2024-01-19T01:36:53.376Z,-2.49
2024-01-19T01:39:23.921Z,-2.51
2024-01-19T01:41:53.209Z,-2.52
2024-01-19T01:44:23.844Z,-2.56
2024-01-19T01:46:54.214Z,-2.60
2024-01-19T01:49:24.904Z,-2.64
2024-01-19T01:51:54.643Z,-2.69
2024-01-19T01:54:25.165Z,-2.73
2024-01-19T01:56:54.565Z,-2.76
2024-01-19T01:59:25.183Z,-2.80
2024-01-19T02:01:55.142Z,-2.84
2024-01-19T02:04:25.653Z,-2.83
2024-01-19T02:06:55.122Z,-2.82
2024-01-19T02:09:25.711Z,-2.83
2024-01-19T02:11:55.443Z,-2.84
2024-01-19T02:14:26.364Z,-2.86
2024-01-19T02:16:55.616Z,-2.88
2024-01-19T02:19:26.202Z,-2.90
2024-01-19T02:21:55.534Z,-2.92
2024-01-19T02:24:26.044Z,-2.92
2024-01-19T02:26:56.727Z,-2.92
2024-01-19T02:29:27.353Z,-2.94
2024-01-19T02:31:57.050Z,-2.94
2024-01-19T02:34:27.612Z,-2.95
2024-01-19T02:36:56.953Z,-2.97
2024-01-19T02:39:27.439Z,-2.97
2024-01-19T02:41:56.699Z,-2.97
2024-01-19T02:44:27.169Z,-2.96
2024-01-19T02:46:56.374Z,-2.95
2024-01-19T02:49:27.035Z,-2.95
2024-01-19T02:51:56.243Z,-2.98
2024-01-19T02:54:27.062Z,-2.99
2024-01-19T02:56:56.341Z,-2.98
2024-01-19T02:59:26.885Z,-2.96
2024-01-19T03:01:56.102Z,-2.95
2024-01-19T03:04:26.625Z,-2.92
2024-01-19T03:06:56.572Z,-2.90
2024-01-19T03:09:27.122Z,-2.88
2024-01-19T03:11:56.464Z,-2.87
2024-01-19T03:14:27.264Z,-2.86
2024-01-19T03:16:56.517Z,-2.85
2024-01-19T03:19:27.122Z,-2.80
2024-01-19T03:21:56.486Z,-2.75
2024-01-19T03:24:27.039Z,-2.70
2024-01-19T03:26:56.455Z,-2.67
2024-01-19T03:29:27.765Z,-2.66
2024-01-19T03:31:56.967Z,-2.67
2024-01-19T03:34:27.789Z,-2.67
2024-01-19T03:36:56.998Z,-2.69
2024-01-19T03:39:27.474Z,-2.72
2024-01-19T03:41:56.946Z,-2.73
2024-01-19T03:44:27.726Z,-2.72
2024-01-19T03:46:58.304Z,-2.75
2024-01-19T03:49:28.933Z,-2.78
2024-01-19T03:52:02.932Z,-2.81
2024-01-19T03:54:36.706Z,-2.82
2024-01-19T03:57:07.637Z,-2.83
2024-01-19T03:59:38.153Z,-2.81
2024-01-19T04:02:07.433Z,-2.81
2024-01-19T04:04:38.047Z,-2.79
2024-01-19T04:07:07.431Z,-2.76
2024-01-19T04:09:37.979Z,-2.74
2024-01-19T04:12:16.798Z,-2.74
2024-01-19T04:14:48.078Z,-2.77
2024-01-19T04:17:17.721Z,-2.82
2024-01-19T04:19:48.292Z,-2.85
2024-01-19T04:22:17.493Z,-2.87
2024-01-19T04:24:48.030Z,-2.88
2024-01-19T04:27:17.255Z,-2.92
2024-01-19T04:29:47.765Z,-2.96
2024-01-19T04:32:17.150Z,-3.02
2024-01-19T04:34:47.641Z,-3.08
2024-01-19T04:37:17.223Z,-3.11
2024-01-19T04:39:47.747Z,-3.11
2024-01-19T04:42:17.074Z,-3.10
2024-01-19T04:44:47.641Z,-3.12
2024-01-19T04:47:16.844Z,-3.15
2024-01-19T04:49:47.470Z,-3.20
2024-01-19T04:52:16.728Z,-3.27
2024-01-19T04:54:49.635Z,-3.34
2024-01-19T04:57:18.838Z,-3.41
2024-01-19T04:59:50.293Z,-3.46
2024-01-19T05:02:19.948Z,-3.52
2024-01-19T05:04:50.745Z,-3.58
2024-01-19T05:07:20.053Z,-3.63
2024-01-19T05:09:50.650Z,-3.69
2024-01-19T05:12:19.913Z,-3.75
2024-01-19T05:14:50.391Z,-3.78
2024-01-19T05:17:19.848Z,-3.82
2024-01-19T05:19:50.901Z,-3.85
2024-01-19T05:22:20.301Z,-3.91
2024-01-19T05:24:50.970Z,-3.95
2024-01-19T05:27:20.223Z,-4.00
2024-01-19T05:29:50.820Z,-4.06
2024-01-19T05:32:20.166Z,-4.10
2024-01-19T05:34:50.995Z,-4.13
2024-01-19T05:37:20.290Z,-4.14
2024-01-19T05:39:51.174Z,-4.15
2024-01-19T05:42:20.473Z,-4.18
2024-01-19T05:44:51.070Z,-4.23
2024-01-19T05:47:20.619Z,-4.27
2024-01-19T05:49:51.191Z,-4.31
2024-01-19T05:52:20.556Z,-4.36
2024-01-19T05:54:51.108Z,-4.40
2024-01-19T05:57:20.401Z,-4.43
2024-01-19T05:59:51.279Z,-4.44
2024-01-19T06:02:21.677Z,-4.43
2024-01-19T06:04:53.900Z,-4.44
2024-01-19T06:07:24.102Z,-4.45
2024-01-19T06:09:54.588Z,-4.46
2024-01-19T06:12:23.828Z,-4.46
2024-01-19T06:14:54.338Z,-4.47
2024-01-19T06:17:23.756Z,-4.44
2024-01-19T06:19:54.269Z,-4.37
2024-01-19T06:22:23.580Z,-4.28
2024-01-19T06:24:54.051Z,-4.20
2024-01-19T06:27:23.356Z,-4.13
2024-01-19T06:29:53.894Z,-4.08
2024-01-19T06:32:23.249Z,-4.05
2024-01-19T06:34:53.815Z,-4.02
2024-01-19T06:37:23.077Z,-4.02
2024-01-19T06:39:53.601Z,-4.03
2024-01-19T06:42:23.006Z,-4.05
2024-01-19T06:44:53.524Z,-4.10
2024-01-19T06:47:22.863Z,-4.16
2024-01-19T06:49:53.768Z,-4.24
2024-01-19T06:52:23.055Z,-4.29
2024-01-19T06:54:53.640Z,-4.34
2024-01-19T06:57:22.896Z,-4.37
2024-01-19T06:59:53.464Z,-4.37
2024-01-19T07:02:22.832Z,-4.37
2024-01-19T07:04:53.287Z,-4.39
2024-01-19T07:07:22.559Z,-4.36
2024-01-19T07:09:53.174Z,-4.33
2024-01-19T07:12:22.480Z,-4.28
2024-01-19T07:14:53.166Z,-4.23
2024-01-19T07:17:22.488Z,-4.18
2024-01-19T07:19:53.128Z,-4.13
2024-01-19T07:22:22.836Z,-4.05
2024-01-19T07:24:53.368Z,-3.93
2024-01-19T07:27:22.653Z,-3.76
2024-01-19T07:29:53.294Z,-3.58
2024-01-19T07:32:26.068Z,-3.36
2024-01-19T07:34:56.751Z,-3.11
2024-01-19T07:37:25.999Z,-2.79
2024-01-19T07:39:56.616Z,-2.30
2024-01-19T07:42:26.185Z,-1.65
2024-01-19T07:44:56.767Z,-1.10
2024-01-19T07:47:26.158Z,-0.68
2024-01-19T07:49:56.718Z,-0.31
2024-01-19T07:52:25.975Z,0.00
2024-01-19T07:54:56.570Z,0.51
2024-01-19T07:57:25.784Z,1.37
2024-01-19T07:59:56.226Z,2.21
2024-01-19T08:02:26.353Z,3.02
2024-01-19T08:04:56.919Z,3.43
2024-01-19T08:07:27.591Z,3.79
2024-01-19T08:09:58.039Z,3.91
2024-01-19T08:12:28.300Z,3.88
2024-01-19T08:14:59.477Z,3.81
2024-01-19T08:17:29.037Z,3.88
2024-01-19T08:19:59.582Z,4.31
2024-01-19T08:22:29.100Z,5.36
2024-01-19T08:24:59.841Z,6.38
2024-01-19T08:27:29.220Z,6.81
2024-01-19T08:29:59.907Z,6.51
2024-01-19T08:32:29.498Z,6.39
2024-01-19T08:35:00.245Z,6.20
2024-01-19T08:37:30.051Z,6.59
2024-01-19T08:40:00.753Z,7.02
2024-01-19T08:42:30.045Z,7.17
2024-01-19T08:45:00.957Z,7.39
2024-01-19T08:47:30.311Z,7.52
2024-01-19T08:50:01.165Z,7.45
2024-01-19T08:52:31.109Z,7.35
2024-01-19T08:55:01.726Z,7.30
2024-01-19T08:57:32.401Z,6.94
2024-01-19T09:00:06.200Z,6.72
2024-01-19T09:02:35.719Z,6.51
2024-01-19T09:05:07.369Z,6.30
2024-01-19T09:07:36.886Z,6.14
2024-01-19T09:10:09.160Z,6.22
2024-01-19T09:12:38.478Z,6.51
2024-01-19T09:15:09.969Z,6.45
2024-01-19T09:17:39.411Z,6.23
2024-01-19T09:20:10.788Z,6.11
2024-01-19T09:22:40.078Z,5.98
2024-01-19T09:25:12.971Z,5.90
2024-01-19T09:27:42.249Z,5.89
2024-01-19T09:30:13.580Z,5.73
2024-01-19T09:32:43.045Z,5.49
2024-01-19T09:35:14.783Z,5.70
2024-01-19T09:37:44.031Z,6.18
2024-01-19T09:40:14.466Z,6.40
2024-01-19T09:42:43.754Z,6.46
2024-01-19T09:45:19.418Z,6.39
2024-01-19T09:48:14.963Z,6.68
2024-01-19T09:50:47.521Z,7.03
2024-01-19T09:53:38.012Z,7.17
2024-01-19T09:56:09.404Z,7.44
2024-01-19T09:58:39.241Z,7.53
2024-01-19T10:01:09.807Z,7.74
2024-01-19T10:03:39.199Z,7.84
2024-01-19T10:06:12.743Z,7.70
2024-01-19T10:08:42.587Z,7.54
2024-01-19T10:11:13.215Z,7.37
2024-01-19T10:13:42.516Z,7.38
2024-01-19T10:16:12.970Z,7.35
2024-01-19T10:18:42.656Z,7.20
2024-01-19T10:21:14.479Z,7.01
2024-01-19T10:23:44.584Z,6.77
2024-01-19T10:26:18.890Z,6.57
2024-01-19T10:28:48.404Z,6.54
2024-01-19T10:31:23.968Z,6.59
2024-01-19T10:33:57.432Z,6.66
2024-01-19T10:36:27.619Z,6.66
2024-01-19T10:39:19.697Z,6.53
2024-01-19T10:41:52.104Z,6.46
2024-01-19T10:44:24.238Z,6.38
2024-01-19T10:46:57.412Z,6.26
2024-01-19T10:49:26.660Z,6.11
2024-01-19T10:51:57.902Z,5.98
2024-01-19T10:54:27.284Z,5.88
2024-01-19T10:57:07.950Z,5.75
2024-01-19T10:59:38.665Z,5.55
2024-01-19T11:02:08.021Z,5.36
2024-01-19T11:04:41.502Z,5.17
2024-01-19T11:07:11.151Z,4.94
2024-01-19T11:09:42.138Z,4.75
2024-01-19T11:12:11.645Z,4.62
2024-01-19T11:14:42.172Z,4.52
2024-01-19T11:17:11.709Z,4.50
2024-01-19T11:19:42.222Z,4.48
2024-01-19T11:22:11.416Z,4.49
2024-01-19T11:24:42.662Z,4.55
2024-01-19T11:27:17.074Z,4.56
2024-01-19T11:29:47.645Z,4.53
2024-01-19T11:32:17.008Z,4.48
2024-01-19T11:34:50.483Z,4.39
2024-01-19T11:37:43.119Z,4.23
2024-01-19T11:40:26.231Z,4.02
2024-01-19T11:42:56.836Z,3.84
2024-01-19T11:45:29.844Z,3.69
2024-01-19T11:48:00.487Z,3.56
2024-01-19T11:50:45.905Z,3.41
2024-01-19T11:53:16.699Z,3.24
2024-01-19T11:55:47.373Z,3.11
2024-01-19T11:58:31.519Z,3.11
2024-01-19T12:01:03.114Z,3.11
2024-01-19T12:03:32.568Z,3.12
2024-01-19T12:06:03.646Z,3.15
2024-01-19T12:08:33.800Z,3.12
2024-01-19T12:11:04.801Z,3.03
2024-01-19T12:13:34.937Z,2.93
2024-01-19T12:16:05.732Z,2.77
2024-01-19T12:18:36.359Z,2.62
2024-01-19T12:21:07.360Z,2.46
2024-01-19T12:23:37.161Z,2.31
2024-01-19T12:26:08.829Z,2.16
2024-01-19T12:28:38.230Z,2.04
2024-01-19T12:31:21.229Z,1.93
2024-01-19T12:33:51.973Z,1.81
2024-01-19T12:36:24.205Z,1.71
2024-01-19T12:39:12.651Z,1.64
2024-01-19T12:41:44.609Z,1.60
2024-01-19T12:44:14.982Z,1.53
2024-01-19T12:46:49.266Z,1.46
2024-01-19T12:49:18.703Z,1.37
2024-01-19T12:51:50.124Z,1.27
2024-01-19T12:54:20.527Z,1.17
2024-01-19T12:56:51.089Z,1.09
2024-01-19T12:59:23.290Z,1.05
2024-01-19T13:01:55.261Z,1.04
2024-01-19T13:04:24.765Z,1.01
2024-01-19T13:06:55.105Z,0.96
2024-01-19T13:09:26.564Z,0.89
2024-01-19T13:12:12.395Z,0.81
2024-01-19T13:14:42.915Z,0.71
2024-01-19T13:17:12.333Z,0.61
2024-01-19T13:19:46.071Z,0.52
2024-01-19T13:22:15.794Z,0.46
2024-01-19T13:24:47.841Z,0.42
2024-01-19T13:27:17.039Z,0.39
2024-01-19T13:29:47.888Z,0.36
2024-01-19T13:32:17.269Z,0.32
2024-01-19T13:34:47.892Z,0.29
2024-01-19T13:37:17.186Z,0.25
2024-01-19T13:39:47.713Z,0.20
